sensor_id;sensor_type;location;lat;lon;timestamp;temperature;humidity
56729;DHT22;42612;52.232;7.560;2023-05-19T00:01:14;16.50;45.60
56729;DHT22;42612;52.232;7.560;2023-05-19T00:03:52;16.50;45.10
56729;DHT22;42612;52.232;7.560;2023-05-19T00:06:29;16.50;45.70
56729;DHT22;42612;52.232;7.560;2023-05-19T00:09:04;16.40;45.60
56729;DHT22;42612;52.232;7.560;2023-05-19T00:11:32;16.40;45.90
56729;DHT22;42612;52.232;7.560;2023-05-19T00:14:01;16.30;45.40
56729;DHT22;42612;52.232;7.560;2023-05-19T00:16:28;16.20;45.40
56729;DHT22;42612;52.232;7.560;2023-05-19T00:18:58;16.20;46.00
56729;DHT22;42612;52.232;7.560;2023-05-19T00:21:25;16.10;45.40
56729;DHT22;42612;52.232;7.560;2023-05-19T00:23:51;16.00;45.70
56729;DHT22;42612;52.232;7.560;2023-05-19T00:26:16;16.00;45.80
56729;DHT22;42612;52.232;7.560;2023-05-19T00:28:42;15.90;46.10
56729;DHT22;42612;52.232;7.560;2023-05-19T00:31:08;15.90;46.20
56729;DHT22;42612;52.232;7.560;2023-05-19T00:33:34;15.80;46.30
56729;DHT22;42612;52.232;7.560;2023-05-19T00:36:03;15.80;46.30
56729;DHT22;42612;52.232;7.560;2023-05-19T00:38:31;15.80;46.40
56729;DHT22;42612;52.232;7.560;2023-05-19T00:40:58;15.80;46.60
56729;DHT22;42612;52.232;7.560;2023-05-19T00:43:24;15.80;46.50
56729;DHT22;42612;52.232;7.560;2023-05-19T00:45:50;15.70;46.50
56729;DHT22;42612;52.232;7.560;2023-05-19T00:48:16;15.70;46.60
56729;DHT22;42612;52.232;7.560;2023-05-19T00:50:42;15.70;46.70
56729;DHT22;42612;52.232;7.560;2023-05-19T00:53:09;15.70;46.70
56729;DHT22;42612;52.232;7.560;2023-05-19T00:55:36;15.70;46.70
56729;DHT22;42612;52.232;7.560;2023-05-19T00:58:05;15.60;46.90
56729;DHT22;42612;52.232;7.560;2023-05-19T01:00:31;15.70;46.90
56729;DHT22;42612;52.232;7.560;2023-05-19T01:02:58;15.60;46.90
56729;DHT22;42612;52.232;7.560;2023-05-19T01:05:23;15.50;46.90
56729;DHT22;42612;52.232;7.560;2023-05-19T01:07:50;15.50;47.00
56729;DHT22;42612;52.232;7.560;2023-05-19T01:10:18;15.50;47.10
56729;DHT22;42612;52.232;7.560;2023-05-19T01:12:44;15.40;47.10
56729;DHT22;42612;52.232;7.560;2023-05-19T01:15:11;15.40;47.10
56729;DHT22;42612;52.232;7.560;2023-05-19T01:17:50;15.30;47.20
56729;DHT22;42612;52.232;7.560;2023-05-19T01:20:31;15.20;48.10
56729;DHT22;42612;52.232;7.560;2023-05-19T01:23:22;15.10;47.90
56729;DHT22;42612;52.232;7.560;2023-05-19T01:32:31;14.90;48.90
56729;DHT22;42612;52.232;7.560;2023-05-19T01:34:58;14.80;47.90
56729;DHT22;42612;52.232;7.560;2023-05-19T01:37:25;14.80;48.00
56729;DHT22;42612;52.232;7.560;2023-05-19T01:39:52;14.80;48.20
56729;DHT22;42612;52.232;7.560;2023-05-19T01:42:18;14.80;48.30
56729;DHT22;42612;52.232;7.560;2023-05-19T01:44:45;14.80;48.40
56729;DHT22;42612;52.232;7.560;2023-05-19T01:47:11;14.80;48.40
56729;DHT22;42612;52.232;7.560;2023-05-19T01:49:37;14.80;48.50
56729;DHT22;42612;52.232;7.560;2023-05-19T01:52:03;14.80;48.40
56729;DHT22;42612;52.232;7.560;2023-05-19T01:54:29;14.90;48.50
56729;DHT22;42612;52.232;7.560;2023-05-19T01:57:14;14.90;48.50
56729;DHT22;42612;52.232;7.560;2023-05-19T02:00:07;14.90;49.40
56729;DHT22;42612;52.232;7.560;2023-05-19T02:05:51;14.90;48.70
56729;DHT22;42612;52.232;7.560;2023-05-19T02:08:29;15.00;49.20
56729;DHT22;42612;52.232;7.560;2023-05-19T02:11:13;15.00;48.60
56729;DHT22;42612;52.232;7.560;2023-05-19T02:13:42;15.00;48.60
56729;DHT22;42612;52.232;7.560;2023-05-19T02:16:09;15.00;48.40
56729;DHT22;42612;52.232;7.560;2023-05-19T02:18:37;15.00;48.30
56729;DHT22;42612;52.232;7.560;2023-05-19T02:21:04;15.00;48.30
56729;DHT22;42612;52.232;7.560;2023-05-19T02:23:30;14.90;48.20
56729;DHT22;42612;52.232;7.560;2023-05-19T02:25:55;14.90;48.20
56729;DHT22;42612;52.232;7.560;2023-05-19T02:28:21;14.90;48.20
56729;DHT22;42612;52.232;7.560;2023-05-19T02:30:47;14.90;48.10
56729;DHT22;42612;52.232;7.560;2023-05-19T02:33:13;14.80;48.10
56729;DHT22;42612;52.232;7.560;2023-05-19T02:35:38;14.70;48.10
56729;DHT22;42612;52.232;7.560;2023-05-19T02:38:04;14.70;48.30
56729;DHT22;42612;52.232;7.560;2023-05-19T02:40:30;14.60;48.20
56729;DHT22;42612;52.232;7.560;2023-05-19T02:42:55;14.60;48.20
56729;DHT22;42612;52.232;7.560;2023-05-19T02:45:21;14.50;48.20
56729;DHT22;42612;52.232;7.560;2023-05-19T02:47:47;14.50;48.30
56729;DHT22;42612;52.232;7.560;2023-05-19T02:50:12;14.50;48.40
56729;DHT22;42612;52.232;7.560;2023-05-19T02:52:38;14.50;48.40
56729;DHT22;42612;52.232;7.560;2023-05-19T02:55:04;14.40;48.40
56729;DHT22;42612;52.232;7.560;2023-05-19T02:57:31;14.40;48.40
56729;DHT22;42612;52.232;7.560;2023-05-19T02:59:57;14.40;48.30
56729;DHT22;42612;52.232;7.560;2023-05-19T03:02:23;14.50;48.30
56729;DHT22;42612;52.232;7.560;2023-05-19T03:04:48;14.50;48.40
56729;DHT22;42612;52.232;7.560;2023-05-19T03:07:15;14.50;48.40
56729;DHT22;42612;52.232;7.560;2023-05-19T03:09:40;14.50;48.30
56729;DHT22;42612;52.232;7.560;2023-05-19T03:12:06;14.50;48.30
56729;DHT22;42612;52.232;7.560;2023-05-19T03:14:33;14.50;48.30
56729;DHT22;42612;52.232;7.560;2023-05-19T03:16:59;14.50;48.30
56729;DHT22;42612;52.232;7.560;2023-05-19T03:19:26;14.50;48.40
56729;DHT22;42612;52.232;7.560;2023-05-19T03:21:52;14.50;48.40
56729;DHT22;42612;52.232;7.560;2023-05-19T03:24:17;14.50;48.40
56729;DHT22;42612;52.232;7.560;2023-05-19T03:26:43;14.50;48.40
56729;DHT22;42612;52.232;7.560;2023-05-19T03:29:09;14.50;48.50
56729;DHT22;42612;52.232;7.560;2023-05-19T03:31:34;14.50;48.40
56729;DHT22;42612;52.232;7.560;2023-05-19T03:34:00;14.50;48.40
56729;DHT22;42612;52.232;7.560;2023-05-19T03:36:27;14.50;48.30
56729;DHT22;42612;52.232;7.560;2023-05-19T03:38:57;14.50;48.20
56729;DHT22;42612;52.232;7.560;2023-05-19T03:41:23;14.40;48.10
56729;DHT22;42612;52.232;7.560;2023-05-19T03:43:48;14.40;48.10
56729;DHT22;42612;52.232;7.560;2023-05-19T03:46:14;14.40;48.10
56729;DHT22;42612;52.232;7.560;2023-05-19T03:48:40;14.40;48.20
56729;DHT22;42612;52.232;7.560;2023-05-19T03:51:05;14.30;48.20
56729;DHT22;42612;52.232;7.560;2023-05-19T03:53:31;14.30;48.10
56729;DHT22;42612;52.232;7.560;2023-05-19T03:55:57;14.30;48.10
56729;DHT22;42612;52.232;7.560;2023-05-19T03:58:23;14.30;48.20
56729;DHT22;42612;52.232;7.560;2023-05-19T04:00:49;14.20;48.40
56729;DHT22;42612;52.232;7.560;2023-05-19T04:03:15;14.20;48.40
56729;DHT22;42612;52.232;7.560;2023-05-19T04:05:41;14.20;48.50
56729;DHT22;42612;52.232;7.560;2023-05-19T04:08:06;14.20;48.60
56729;DHT22;42612;52.232;7.560;2023-05-19T04:10:32;14.10;48.50
56729;DHT22;42612;52.232;7.560;2023-05-19T04:12:58;14.10;48.50
56729;DHT22;42612;52.232;7.560;2023-05-19T04:15:24;14.10;48.60
56729;DHT22;42612;52.232;7.560;2023-05-19T04:17:49;14.10;48.60
56729;DHT22;42612;52.232;7.560;2023-05-19T04:20:15;14.10;48.60
56729;DHT22;42612;52.232;7.560;2023-05-19T04:22:41;14.10;48.70
56729;DHT22;42612;52.232;7.560;2023-05-19T04:25:07;14.00;48.70
56729;DHT22;42612;52.232;7.560;2023-05-19T04:27:33;14.10;48.80
56729;DHT22;42612;52.232;7.560;2023-05-19T04:30:06;14.10;48.90
56729;DHT22;42612;52.232;7.560;2023-05-19T04:32:32;14.10;48.90
56729;DHT22;42612;52.232;7.560;2023-05-19T04:34:58;14.10;49.00
56729;DHT22;42612;52.232;7.560;2023-05-19T04:37:25;14.10;49.10
56729;DHT22;42612;52.232;7.560;2023-05-19T04:39:51;14.10;49.20
56729;DHT22;42612;52.232;7.560;2023-05-19T04:42:17;14.10;49.20
56729;DHT22;42612;52.232;7.560;2023-05-19T04:44:45;14.10;49.20
56729;DHT22;42612;52.232;7.560;2023-05-19T04:47:13;14.10;49.20
56729;DHT22;42612;52.232;7.560;2023-05-19T04:49:39;14.20;49.20
56729;DHT22;42612;52.232;7.560;2023-05-19T04:52:09;14.20;49.40
56729;DHT22;42612;52.232;7.560;2023-05-19T04:54:36;14.20;49.80
56729;DHT22;42612;52.232;7.560;2023-05-19T04:57:02;14.20;49.60
56729;DHT22;42612;52.232;7.560;2023-05-19T04:59:28;14.30;49.60
56729;DHT22;42612;52.232;7.560;2023-05-19T05:01:55;14.30;49.70
56729;DHT22;42612;52.232;7.560;2023-05-19T05:04:21;14.30;49.70
56729;DHT22;42612;52.232;7.560;2023-05-19T05:06:48;14.30;49.60
56729;DHT22;42612;52.232;7.560;2023-05-19T05:09:15;14.40;49.60
56729;DHT22;42612;52.232;7.560;2023-05-19T05:11:41;14.40;49.80
56729;DHT22;42612;52.232;7.560;2023-05-19T05:14:07;14.40;49.90
56729;DHT22;42612;52.232;7.560;2023-05-19T05:16:34;14.50;50.10
56729;DHT22;42612;52.232;7.560;2023-05-19T05:19:00;14.50;50.10
56729;DHT22;42612;52.232;7.560;2023-05-19T05:21:27;14.50;50.20
56729;DHT22;42612;52.232;7.560;2023-05-19T05:23:53;14.60;50.30
56729;DHT22;42612;52.232;7.560;2023-05-19T05:26:20;14.60;50.30
56729;DHT22;42612;52.232;7.560;2023-05-19T05:28:49;14.60;50.40
56729;DHT22;42612;52.232;7.560;2023-05-19T05:31:15;14.70;50.50
56729;DHT22;42612;52.232;7.560;2023-05-19T05:33:41;14.70;51.20
56729;DHT22;42612;52.232;7.560;2023-05-19T05:36:07;14.80;50.40
56729;DHT22;42612;52.232;7.560;2023-05-19T05:38:33;14.80;50.40
56729;DHT22;42612;52.232;7.560;2023-05-19T05:41:00;14.90;50.40
56729;DHT22;42612;52.232;7.560;2023-05-19T05:43:28;14.90;50.40
56729;DHT22;42612;52.232;7.560;2023-05-19T05:45:55;15.00;50.50
56729;DHT22;42612;52.232;7.560;2023-05-19T05:48:21;15.10;50.50
56729;DHT22;42612;52.232;7.560;2023-05-19T05:50:48;15.20;50.50
56729;DHT22;42612;52.232;7.560;2023-05-19T05:53:19;15.20;50.40
56729;DHT22;42612;52.232;7.560;2023-05-19T05:55:46;15.30;50.80
56729;DHT22;42612;52.232;7.560;2023-05-19T05:58:12;15.40;50.60
56729;DHT22;42612;52.232;7.560;2023-05-19T06:00:40;15.50;50.50
56729;DHT22;42612;52.232;7.560;2023-05-19T06:03:09;15.50;50.30
56729;DHT22;42612;52.232;7.560;2023-05-19T06:05:36;15.60;50.00
56729;DHT22;42612;52.232;7.560;2023-05-19T06:08:02;15.70;50.00
56729;DHT22;42612;52.232;7.560;2023-05-19T06:10:28;15.70;49.80
56729;DHT22;42612;52.232;7.560;2023-05-19T06:12:54;15.90;49.70
56729;DHT22;42612;52.232;7.560;2023-05-19T06:15:21;15.90;49.50
56729;DHT22;42612;52.232;7.560;2023-05-19T06:17:47;16.00;49.30
56729;DHT22;42612;52.232;7.560;2023-05-19T06:20:12;16.00;49.10
56729;DHT22;42612;52.232;7.560;2023-05-19T06:22:38;16.10;49.20
56729;DHT22;42612;52.232;7.560;2023-05-19T06:25:05;16.20;49.10
56729;DHT22;42612;52.232;7.560;2023-05-19T06:27:33;16.30;48.90
56729;DHT22;42612;52.232;7.560;2023-05-19T06:30:00;16.30;48.70
56729;DHT22;42612;52.232;7.560;2023-05-19T06:32:26;16.30;48.60
56729;DHT22;42612;52.232;7.560;2023-05-19T06:34:51;16.40;48.70
56729;DHT22;42612;52.232;7.560;2023-05-19T06:37:23;16.50;48.60
56729;DHT22;42612;52.232;7.560;2023-05-19T06:39:52;16.50;48.40
56729;DHT22;42612;52.232;7.560;2023-05-19T06:42:19;16.60;48.10
56729;DHT22;42612;52.232;7.560;2023-05-19T06:44:50;16.70;47.90
56729;DHT22;42612;52.232;7.560;2023-05-19T06:47:17;16.70;47.80
56729;DHT22;42612;52.232;7.560;2023-05-19T06:49:44;16.80;47.80
56729;DHT22;42612;52.232;7.560;2023-05-19T06:52:10;16.80;47.70
56729;DHT22;42612;52.232;7.560;2023-05-19T06:54:35;16.80;47.70
56729;DHT22;42612;52.232;7.560;2023-05-19T06:57:01;16.90;47.50
56729;DHT22;42612;52.232;7.560;2023-05-19T06:59:28;16.90;47.40
56729;DHT22;42612;52.232;7.560;2023-05-19T07:01:54;17.10;47.50
56729;DHT22;42612;52.232;7.560;2023-05-19T07:04:20;17.10;47.40
56729;DHT22;42612;52.232;7.560;2023-05-19T07:06:45;17.10;47.20
56729;DHT22;42612;52.232;7.560;2023-05-19T07:09:12;17.20;47.10
56729;DHT22;42612;52.232;7.560;2023-05-19T07:11:38;17.20;47.00
56729;DHT22;42612;52.232;7.560;2023-05-19T07:14:03;17.30;47.00
56729;DHT22;42612;52.232;7.560;2023-05-19T07:16:29;17.30;47.10
56729;DHT22;42612;52.232;7.560;2023-05-19T07:18:55;17.40;47.10
56729;DHT22;42612;52.232;7.560;2023-05-19T07:21:20;17.50;46.90
56729;DHT22;42612;52.232;7.560;2023-05-19T07:23:46;17.50;46.80
56729;DHT22;42612;52.232;7.560;2023-05-19T07:26:12;17.60;46.60
56729;DHT22;42612;52.232;7.560;2023-05-19T07:28:37;17.60;46.50
56729;DHT22;42612;52.232;7.560;2023-05-19T07:31:03;17.70;46.40
56729;DHT22;42612;52.232;7.560;2023-05-19T07:33:29;17.70;46.40
56729;DHT22;42612;52.232;7.560;2023-05-19T07:35:54;17.80;46.30
56729;DHT22;42612;52.232;7.560;2023-05-19T07:38:20;17.90;46.20
56729;DHT22;42612;52.232;7.560;2023-05-19T07:40:46;17.90;46.30
56729;DHT22;42612;52.232;7.560;2023-05-19T07:43:12;18.00;46.20
56729;DHT22;42612;52.232;7.560;2023-05-19T07:45:38;18.00;46.00
56729;DHT22;42612;52.232;7.560;2023-05-19T07:48:03;18.10;45.70
56729;DHT22;42612;52.232;7.560;2023-05-19T07:50:29;18.10;45.40
56729;DHT22;42612;52.232;7.560;2023-05-19T07:52:56;18.10;45.40
56729;DHT22;42612;52.232;7.560;2023-05-19T07:55:21;18.20;45.60
56729;DHT22;42612;52.232;7.560;2023-05-19T07:57:48;18.20;45.20
56729;DHT22;42612;52.232;7.560;2023-05-19T08:00:15;18.30;45.00
56729;DHT22;42612;52.232;7.560;2023-05-19T08:02:42;18.30;44.90
56729;DHT22;42612;52.232;7.560;2023-05-19T08:05:08;18.40;44.70
56729;DHT22;42612;52.232;7.560;2023-05-19T08:07:35;18.40;44.50
56729;DHT22;42612;52.232;7.560;2023-05-19T08:10:01;18.40;44.60
56729;DHT22;42612;52.232;7.560;2023-05-19T08:12:27;18.50;44.60
56729;DHT22;42612;52.232;7.560;2023-05-19T08:14:53;18.50;44.50
56729;DHT22;42612;52.232;7.560;2023-05-19T08:17:18;18.60;44.60
56729;DHT22;42612;52.232;7.560;2023-05-19T08:19:44;18.60;44.20
56729;DHT22;42612;52.232;7.560;2023-05-19T08:22:10;18.70;44.20
56729;DHT22;42612;52.232;7.560;2023-05-19T08:24:35;18.70;44.10
56729;DHT22;42612;52.232;7.560;2023-05-19T08:27:01;18.70;43.60
56729;DHT22;42612;52.232;7.560;2023-05-19T08:29:29;18.80;43.50
56729;DHT22;42612;52.232;7.560;2023-05-19T08:31:54;18.90;43.40
56729;DHT22;42612;52.232;7.560;2023-05-19T08:34:20;18.90;43.70
56729;DHT22;42612;52.232;7.560;2023-05-19T08:36:46;19.00;43.50
56729;DHT22;42612;52.232;7.560;2023-05-19T08:39:12;19.00;43.50
56729;DHT22;42612;52.232;7.560;2023-05-19T08:41:40;19.00;43.50
56729;DHT22;42612;52.232;7.560;2023-05-19T08:44:06;19.10;43.20
56729;DHT22;42612;52.232;7.560;2023-05-19T08:46:31;19.20;43.10
56729;DHT22;42612;52.232;7.560;2023-05-19T08:49:03;19.20;43.10
56729;DHT22;42612;52.232;7.560;2023-05-19T08:54:17;19.40;43.30
56729;DHT22;42612;52.232;7.560;2023-05-19T08:56:44;19.40;43.30
56729;DHT22;42612;52.232;7.560;2023-05-19T08:59:14;19.50;43.00
56729;DHT22;42612;52.232;7.560;2023-05-19T09:01:44;19.50;42.30
56729;DHT22;42612;52.232;7.560;2023-05-19T09:04:11;19.60;42.00
56729;DHT22;42612;52.232;7.560;2023-05-19T09:06:37;19.70;42.40
56729;DHT22;42612;52.232;7.560;2023-05-19T09:09:05;19.70;42.20
56729;DHT22;42612;52.232;7.560;2023-05-19T09:11:32;19.80;42.70
56729;DHT22;42612;52.232;7.560;2023-05-19T09:14:00;19.80;42.30
56729;DHT22;42612;52.232;7.560;2023-05-19T09:16:25;19.90;41.90
56729;DHT22;42612;52.232;7.560;2023-05-19T09:18:55;20.00;41.50
56729;DHT22;42612;52.232;7.560;2023-05-19T09:21:28;20.00;40.50
56729;DHT22;42612;52.232;7.560;2023-05-19T09:24:04;20.10;41.00
56729;DHT22;42612;52.232;7.560;2023-05-19T09:26:41;20.10;41.40
56729;DHT22;42612;52.232;7.560;2023-05-19T09:29:15;20.20;41.10
56729;DHT22;42612;52.232;7.560;2023-05-19T09:31:48;20.20;40.60
56729;DHT22;42612;52.232;7.560;2023-05-19T09:34:15;20.30;41.50
56729;DHT22;42612;52.232;7.560;2023-05-19T09:36:41;20.40;41.50
56729;DHT22;42612;52.232;7.560;2023-05-19T09:39:13;20.50;41.10
56729;DHT22;42612;52.232;7.560;2023-05-19T09:41:40;20.60;40.30
56729;DHT22;42612;52.232;7.560;2023-05-19T09:44:05;20.60;40.60
56729;DHT22;42612;52.232;7.560;2023-05-19T09:46:31;20.70;40.00
56729;DHT22;42612;52.232;7.560;2023-05-19T09:49:08;20.70;40.40
56729;DHT22;42612;52.232;7.560;2023-05-19T09:51:40;20.70;40.50
56729;DHT22;42612;52.232;7.560;2023-05-19T09:54:06;20.70;40.30
56729;DHT22;42612;52.232;7.560;2023-05-19T09:56:34;20.80;40.50
56729;DHT22;42612;52.232;7.560;2023-05-19T09:59:02;20.80;40.80
56729;DHT22;42612;52.232;7.560;2023-05-19T10:01:31;20.80;40.30
56729;DHT22;42612;52.232;7.560;2023-05-19T10:04:02;20.90;40.50
56729;DHT22;42612;52.232;7.560;2023-05-19T10:06:29;20.90;40.50
56729;DHT22;42612;52.232;7.560;2023-05-19T10:08:55;21.00;40.20
56729;DHT22;42612;52.232;7.560;2023-05-19T10:11:22;21.00;40.10
56729;DHT22;42612;52.232;7.560;2023-05-19T10:13:50;21.00;40.20
56729;DHT22;42612;52.232;7.560;2023-05-19T10:16:16;21.00;40.30
56729;DHT22;42612;52.232;7.560;2023-05-19T10:18:42;21.10;39.90
56729;DHT22;42612;52.232;7.560;2023-05-19T10:21:09;21.10;39.90
56729;DHT22;42612;52.232;7.560;2023-05-19T10:23:36;21.10;39.60
56729;DHT22;42612;52.232;7.560;2023-05-19T10:26:03;21.10;39.90
56729;DHT22;42612;52.232;7.560;2023-05-19T10:28:42;21.20;39.60
56729;DHT22;42612;52.232;7.560;2023-05-19T10:31:11;21.30;38.50
56729;DHT22;42612;52.232;7.560;2023-05-19T10:36:44;21.40;39.30
56729;DHT22;42612;52.232;7.560;2023-05-19T10:39:25;21.50;39.90
56729;DHT22;42612;52.232;7.560;2023-05-19T10:47:00;21.70;38.70
56729;DHT22;42612;52.232;7.560;2023-05-19T10:49:26;21.80;39.00
56729;DHT22;42612;52.232;7.560;2023-05-19T10:51:54;21.90;39.20
56729;DHT22;42612;52.232;7.560;2023-05-19T10:54:42;22.00;38.40
56729;DHT22;42612;52.232;7.560;2023-05-19T10:57:16;22.10;37.20
56729;DHT22;42612;52.232;7.560;2023-05-19T10:59:43;22.20;37.70
56729;DHT22;42612;52.232;7.560;2023-05-19T11:02:09;22.30;38.00
56729;DHT22;42612;52.232;7.560;2023-05-19T11:04:44;22.30;38.30
56729;DHT22;42612;52.232;7.560;2023-05-19T11:07:19;22.40;37.80
56729;DHT22;42612;52.232;7.560;2023-05-19T11:09:52;22.50;38.10
56729;DHT22;42612;52.232;7.560;2023-05-19T11:12:19;22.60;37.50
56729;DHT22;42612;52.232;7.560;2023-05-19T11:14:54;22.70;38.10
56729;DHT22;42612;52.232;7.560;2023-05-19T11:17:20;22.70;37.60
56729;DHT22;42612;52.232;7.560;2023-05-19T11:19:54;22.70;37.60
56729;DHT22;42612;52.232;7.560;2023-05-19T11:22:25;22.80;37.50
56729;DHT22;42612;52.232;7.560;2023-05-19T11:24:53;22.80;36.80
56729;DHT22;42612;52.232;7.560;2023-05-19T11:30:07;22.90;36.60
56729;DHT22;42612;52.232;7.560;2023-05-19T11:32:39;23.10;36.50
56729;DHT22;42612;52.232;7.560;2023-05-19T11:35:07;23.10;37.40
56729;DHT22;42612;52.232;7.560;2023-05-19T11:37:34;23.20;36.90
56729;DHT22;42612;52.232;7.560;2023-05-19T11:40:04;23.30;37.00
56729;DHT22;42612;52.232;7.560;2023-05-19T11:42:32;23.30;36.20
56729;DHT22;42612;52.232;7.560;2023-05-19T11:45:02;23.40;37.00
56729;DHT22;42612;52.232;7.560;2023-05-19T11:47:30;23.50;37.10
56729;DHT22;42612;52.232;7.560;2023-05-19T11:49:57;23.50;36.30
56729;DHT22;42612;52.232;7.560;2023-05-19T11:52:24;23.50;35.90
56729;DHT22;42612;52.232;7.560;2023-05-19T11:54:50;23.50;35.90
56729;DHT22;42612;52.232;7.560;2023-05-19T11:57:16;23.60;36.10
56729;DHT22;42612;52.232;7.560;2023-05-19T11:59:42;23.60;36.20
56729;DHT22;42612;52.232;7.560;2023-05-19T12:02:19;23.60;36.10
56729;DHT22;42612;52.232;7.560;2023-05-19T12:04:52;23.70;36.00
56729;DHT22;42612;52.232;7.560;2023-05-19T12:07:21;23.70;35.90
56729;DHT22;42612;52.232;7.560;2023-05-19T12:09:51;23.80;35.60
56729;DHT22;42612;52.232;7.560;2023-05-19T12:12:21;23.90;35.60
56729;DHT22;42612;52.232;7.560;2023-05-19T12:14:49;24.00;35.80
56729;DHT22;42612;52.232;7.560;2023-05-19T12:17:18;24.10;35.00
56729;DHT22;42612;52.232;7.560;2023-05-19T12:19:48;24.20;34.90
56729;DHT22;42612;52.232;7.560;2023-05-19T12:22:15;24.30;35.10
56729;DHT22;42612;52.232;7.560;2023-05-19T12:24:42;24.40;35.20
56729;DHT22;42612;52.232;7.560;2023-05-19T12:27:17;24.50;34.80
56729;DHT22;42612;52.232;7.560;2023-05-19T12:29:48;24.50;33.90
56729;DHT22;42612;52.232;7.560;2023-05-19T12:32:18;24.60;35.20
56729;DHT22;42612;52.232;7.560;2023-05-19T12:34:47;24.70;35.70
56729;DHT22;42612;52.232;7.560;2023-05-19T12:37:14;24.80;35.00
56729;DHT22;42612;52.232;7.560;2023-05-19T12:39:41;24.90;34.80
56729;DHT22;42612;52.232;7.560;2023-05-19T12:42:07;25.00;34.60
56729;DHT22;42612;52.232;7.560;2023-05-19T12:44:44;25.10;34.80
56729;DHT22;42612;52.232;7.560;2023-05-19T12:47:11;25.10;33.80
56729;DHT22;42612;52.232;7.560;2023-05-19T12:49:56;25.20;34.60
56729;DHT22;42612;52.232;7.560;2023-05-19T12:52:29;25.20;33.10
56729;DHT22;42612;52.232;7.560;2023-05-19T12:55:04;25.30;34.10
56729;DHT22;42612;52.232;7.560;2023-05-19T12:57:33;25.40;33.70
56729;DHT22;42612;52.232;7.560;2023-05-19T13:00:14;25.40;34.30
56729;DHT22;42612;52.232;7.560;2023-05-19T13:03:03;25.50;34.10
56729;DHT22;42612;52.232;7.560;2023-05-19T13:05:30;25.50;33.80
56729;DHT22;42612;52.232;7.560;2023-05-19T13:08:04;25.60;34.20
56729;DHT22;42612;52.232;7.560;2023-05-19T13:10:36;25.70;34.50
56729;DHT22;42612;52.232;7.560;2023-05-19T13:13:03;25.70;34.20
56729;DHT22;42612;52.232;7.560;2023-05-19T13:15:31;25.80;33.90
56729;DHT22;42612;52.232;7.560;2023-05-19T13:18:00;25.80;33.60
56729;DHT22;42612;52.232;7.560;2023-05-19T13:20:27;25.80;34.00
56729;DHT22;42612;52.232;7.560;2023-05-19T13:22:54;25.70;33.60
56729;DHT22;42612;52.232;7.560;2023-05-19T13:25:20;25.70;33.40
56729;DHT22;42612;52.232;7.560;2023-05-19T13:27:46;25.60;33.50
56729;DHT22;42612;52.232;7.560;2023-05-19T13:30:13;25.60;33.80
56729;DHT22;42612;52.232;7.560;2023-05-19T13:32:42;25.60;34.10
56729;DHT22;42612;52.232;7.560;2023-05-19T13:35:08;25.50;33.60
56729;DHT22;42612;52.232;7.560;2023-05-19T13:37:35;25.40;33.30
56729;DHT22;42612;52.232;7.560;2023-05-19T13:40:01;25.40;33.10
56729;DHT22;42612;52.232;7.560;2023-05-19T13:42:27;25.30;33.00
56729;DHT22;42612;52.232;7.560;2023-05-19T13:44:55;25.30;33.30
56729;DHT22;42612;52.232;7.560;2023-05-19T13:47:24;25.20;33.40
56729;DHT22;42612;52.232;7.560;2023-05-19T13:49:50;25.10;33.20
56729;DHT22;42612;52.232;7.560;2023-05-19T13:52:17;25.10;33.10
56729;DHT22;42612;52.232;7.560;2023-05-19T13:54:43;25.00;32.50
56729;DHT22;42612;52.232;7.560;2023-05-19T13:57:09;24.90;32.30
56729;DHT22;42612;52.232;7.560;2023-05-19T13:59:36;24.80;33.00
56729;DHT22;42612;52.232;7.560;2023-05-19T14:02:02;24.80;32.80
56729;DHT22;42612;52.232;7.560;2023-05-19T14:04:29;24.80;33.10
56729;DHT22;42612;52.232;7.560;2023-05-19T14:06:55;24.90;33.30
56729;DHT22;42612;52.232;7.560;2023-05-19T14:09:21;25.00;32.90
56729;DHT22;42612;52.232;7.560;2023-05-19T14:11:47;25.10;33.00
56729;DHT22;42612;52.232;7.560;2023-05-19T14:14:12;25.10;32.40
56729;DHT22;42612;52.232;7.560;2023-05-19T14:16:41;25.20;32.40
56729;DHT22;42612;52.232;7.560;2023-05-19T14:19:07;25.20;32.20
56729;DHT22;42612;52.232;7.560;2023-05-19T14:21:34;25.30;32.70
56729;DHT22;42612;52.232;7.560;2023-05-19T14:24:00;25.30;32.60
56729;DHT22;42612;52.232;7.560;2023-05-19T14:26:26;25.30;32.40
56729;DHT22;42612;52.232;7.560;2023-05-19T14:28:52;25.40;32.40
56729;DHT22;42612;52.232;7.560;2023-05-19T14:31:17;25.50;32.10
56729;DHT22;42612;52.232;7.560;2023-05-19T14:33:43;25.50;31.80
56729;DHT22;42612;52.232;7.560;2023-05-19T14:36:09;25.60;31.40
56729;DHT22;42612;52.232;7.560;2023-05-19T14:38:35;25.50;31.50
56729;DHT22;42612;52.232;7.560;2023-05-19T14:41:01;25.50;31.70
56729;DHT22;42612;52.232;7.560;2023-05-19T14:43:27;25.40;31.50
56729;DHT22;42612;52.232;7.560;2023-05-19T14:45:53;25.40;32.10
56729;DHT22;42612;52.232;7.560;2023-05-19T14:48:19;25.40;31.90
56729;DHT22;42612;52.232;7.560;2023-05-19T14:50:45;25.50;31.80
56729;DHT22;42612;52.232;7.560;2023-05-19T14:53:14;25.50;32.10
56729;DHT22;42612;52.232;7.560;2023-05-19T14:55:41;25.50;31.60
56729;DHT22;42612;52.232;7.560;2023-05-19T14:58:07;25.50;31.90
56729;DHT22;42612;52.232;7.560;2023-05-19T15:00:33;25.40;31.40
56729;DHT22;42612;52.232;7.560;2023-05-19T15:02:58;25.40;31.40
56729;DHT22;42612;52.232;7.560;2023-05-19T15:05:24;25.30;31.40
56729;DHT22;42612;52.232;7.560;2023-05-19T15:07:50;25.20;31.90
56729;DHT22;42612;52.232;7.560;2023-05-19T15:10:17;25.20;32.30
56729;DHT22;42612;52.232;7.560;2023-05-19T15:12:45;25.20;32.60
56729;DHT22;42612;52.232;7.560;2023-05-19T15:15:11;25.30;32.80
56729;DHT22;42612;52.232;7.560;2023-05-19T15:17:37;25.30;32.50
56729;DHT22;42612;52.232;7.560;2023-05-19T15:20:03;25.40;32.30
56729;DHT22;42612;52.232;7.560;2023-05-19T15:22:29;25.40;32.00
56729;DHT22;42612;52.232;7.560;2023-05-19T15:24:55;25.30;31.90
56729;DHT22;42612;52.232;7.560;2023-05-19T15:27:21;25.30;31.70
56729;DHT22;42612;52.232;7.560;2023-05-19T15:29:47;25.20;32.10
56729;DHT22;42612;52.232;7.560;2023-05-19T15:32:12;25.20;32.10
56729;DHT22;42612;52.232;7.560;2023-05-19T15:34:38;25.10;31.80
56729;DHT22;42612;52.232;7.560;2023-05-19T15:37:04;25.10;31.60
56729;DHT22;42612;52.232;7.560;2023-05-19T15:39:29;25.10;31.80
56729;DHT22;42612;52.232;7.560;2023-05-19T15:41:55;25.10;31.70
56729;DHT22;42612;52.232;7.560;2023-05-19T15:44:21;25.00;31.00
56729;DHT22;42612;52.232;7.560;2023-05-19T15:46:47;24.90;31.00
56729;DHT22;42612;52.232;7.560;2023-05-19T15:49:12;24.80;31.40
56729;DHT22;42612;52.232;7.560;2023-05-19T15:51:38;24.80;31.50
56729;DHT22;42612;52.232;7.560;2023-05-19T15:54:04;24.70;31.90
56729;DHT22;42612;52.232;7.560;2023-05-19T15:56:30;24.60;32.30